Time;durP1;ratioP1;P1;durP2;ratioP2;P2;SDS_P1;SDS_P2;PMS_P1;PMS_P2;Temp;Humidity;BMP_temperature;BMP_pressure;BME280_temperature;BME280_humidity;BME280_pressure;Samples;Min_cycle;Max_cycle;Signal;HPM_P1;HPM_P2
2022/06/21 00:00:12;;;;;;;;;;;14.00;99.90;;;;;;5056613;28;19908;-74
2022/06/21 00:02:39;;;;;;;;;;;14.20;99.90;;;;;;5071745;28;20282;-74
2022/06/21 00:05:10;;;;;;;;;;;14.20;99.90;;;;;;5055597;28;19909;-74
2022/06/21 00:07:37;;;;;;;;;;;14.20;99.90;;;;;;5056429;28;19909;-74
2022/06/21 00:10:04;;;;;;;;;;;14.20;99.90;;;;;;5056769;28;19916;-74
2022/06/21 00:12:30;;;;;;;;;;;14.20;99.90;;;;;;5056708;28;19909;-74
2022/06/21 00:14:57;;;;;;;;;;;14.30;99.90;;;;;;5055294;28;19940;-74
2022/06/21 00:17:24;;;;;;;;;;;14.30;99.90;;;;;;5055344;28;19909;-74
2022/06/21 00:19:50;;;;;;;;;;;14.40;99.90;;;;;;5054791;28;19952;-74
2022/06/21 00:22:19;;;;;;;;;;;14.40;99.90;;;;;;5055133;28;19913;-74
2022/06/21 00:24:46;;;;;;;;;;;14.40;99.90;;;;;;5055138;28;20374;-74
2022/06/21 00:27:14;;;;;;;;;;;14.30;99.90;;;;;;5054934;28;19916;-74
2022/06/21 00:29:41;;;;;;;;;;;14.20;99.90;;;;;;5053562;28;20355;-74
2022/06/21 00:32:11;;;;;;;;;;;14.20;99.90;;;;;;5054905;28;20290;-74
2022/06/21 00:34:38;;;;;;;;;;;14.30;99.90;;;;;;5054851;28;20019;-74
2022/06/21 00:37:05;;;;;;;;;;;14.30;99.90;;;;;;5054947;28;19931;-74
2022/06/21 00:39:31;;;;;;;;;;;14.30;99.90;;;;;;5055104;28;19919;-73
2022/06/21 00:42:04;;;;;;;;;;;14.20;99.90;;;;;;5054686;28;19999;-74
2022/06/21 00:44:31;;;;;;;;;;;14.20;99.90;;;;;;5054905;28;20421;-74
2022/06/21 00:47:02;;;;;;;;;;;14.20;99.90;;;;;;5054841;28;20019;-73
2022/06/21 00:49:32;;;;;;;;;;;14.10;99.90;;;;;;5054617;28;20000;-74
2022/06/21 00:52:14;;;;;;;;;;;14.20;99.90;;;;;;5054523;28;20007;-74
2022/06/21 00:54:52;;;;;;;;;;;14.20;99.90;;;;;;5054461;28;19921;-74
2022/06/21 00:57:20;;;;;;;;;;;14.30;99.90;;;;;;5054401;28;19931;-75
2022/06/21 00:59:49;;;;;;;;;;;14.40;99.90;;;;;;5054138;28;20003;-74
2022/06/21 01:02:27;;;;;;;;;;;14.50;99.90;;;;;;5054340;28;19920;-75
2022/06/21 01:04:56;;;;;;;;;;;14.70;99.90;;;;;;5054592;28;19912;-75
2022/06/21 01:07:23;;;;;;;;;;;15.00;99.90;;;;;;5054243;28;19932;-75
2022/06/21 01:09:51;;;;;;;;;;;15.20;99.90;;;;;;5054120;28;19945;-74
2022/06/21 01:12:21;;;;;;;;;;;15.70;99.90;;;;;;5054095;28;19908;-75
2022/06/21 01:14:50;;;;;;;;;;;16.00;99.90;;;;;;5054118;28;20428;-75
2022/06/21 01:17:17;;;;;;;;;;;16.10;99.90;;;;;;5054104;28;19917;-74
2022/06/21 01:19:47;;;;;;;;;;;16.20;99.90;;;;;;5053814;28;20275;-75
2022/06/21 01:22:17;;;;;;;;;;;16.20;99.90;;;;;;5054009;28;20279;-74
2022/06/21 01:24:59;;;;;;;;;;;16.50;99.90;;;;;;5053795;28;20012;-74
2022/06/21 01:27:26;;;;;;;;;;;16.80;99.90;;;;;;5053618;28;19982;-74
2022/06/21 01:29:53;;;;;;;;;;;16.70;99.90;;;;;;5053678;28;20373;-74
2022/06/21 01:32:20;;;;;;;;;;;16.70;99.90;;;;;;5053759;28;20386;-77
2022/06/21 01:34:46;;;;;;;;;;;16.70;99.90;;;;;;5053710;28;20063;-74
2022/06/21 01:37:18;;;;;;;;;;;16.70;99.90;;;;;;5053683;28;20368;-74
2022/06/21 01:39:58;;;;;;;;;;;16.70;99.90;;;;;;5053541;28;19909;-75
2022/06/21 01:42:27;;;;;;;;;;;16.70;99.90;;;;;;5053518;28;20047;-74
2022/06/21 01:44:57;;;;;;;;;;;16.80;99.90;;;;;;5053710;28;19909;-74
2022/06/21 01:47:26;;;;;;;;;;;16.80;99.90;;;;;;5053750;28;20368;-74
2022/06/21 01:49:56;;;;;;;;;;;16.80;99.90;;;;;;5053319;28;19908;-75
2022/06/21 01:52:25;;;;;;;;;;;16.70;99.90;;;;;;5052095;28;19913;-75
2022/06/21 01:55:03;;;;;;;;;;;16.80;99.90;;;;;;5053368;28;19967;-75
2022/06/21 01:57:30;;;;;;;;;;;16.80;99.90;;;;;;5053475;28;19920;-74
2022/06/21 02:00:03;;;;;;;;;;;17.00;99.90;;;;;;5052803;28;20209;-75
2022/06/21 02:02:32;;;;;;;;;;;17.10;99.90;;;;;;5053372;28;19915;-75
2022/06/21 02:05:09;;;;;;;;;;;17.20;99.90;;;;;;5052043;28;19962;-75
2022/06/21 02:07:39;;;;;;;;;;;17.10;99.90;;;;;;5053032;28;19920;-75
2022/06/21 02:10:06;;;;;;;;;;;17.00;99.90;;;;;;5053196;28;19909;-77
2022/06/21 02:12:34;;;;;;;;;;;17.10;99.90;;;;;;5053141;28;19932;-74
2022/06/21 02:15:03;;;;;;;;;;;17.00;99.90;;;;;;5053201;28;19978;-74
2022/06/21 02:17:40;;;;;;;;;;;17.00;99.90;;;;;;5053299;28;20356;-74
2022/06/21 02:20:07;;;;;;;;;;;16.80;99.90;;;;;;5068708;28;19913;-74
2022/06/21 02:22:35;;;;;;;;;;;16.60;99.90;;;;;;5053241;28;20359;-74
2022/06/21 02:25:03;;;;;;;;;;;16.80;99.90;;;;;;5052964;28;19909;-73
2022/06/21 02:27:33;;;;;;;;;;;17.10;99.90;;;;;;5053962;28;19932;-74
2022/06/21 02:30:01;;;;;;;;;;;17.30;99.90;;;;;;5057236;28;19995;-74
2022/06/21 02:32:29;;;;;;;;;;;17.30;99.90;;;;;;5057121;28;19916;-74
2022/06/21 02:34:59;;;;;;;;;;;17.30;99.90;;;;;;5057163;28;20423;-74
2022/06/21 02:37:27;;;;;;;;;;;17.20;99.90;;;;;;5057119;28;19909;-74
2022/06/21 02:39:55;;;;;;;;;;;17.20;99.90;;;;;;5056724;28;19915;-74
2022/06/21 02:42:29;;;;;;;;;;;17.20;99.90;;;;;;5057024;28;19992;-74
2022/06/21 02:45:02;;;;;;;;;;;17.10;99.90;;;;;;5056977;28;20274;-73
2022/06/21 02:47:36;;;;;;;;;;;17.20;99.90;;;;;;5056889;28;19909;-74
2022/06/21 02:50:07;;;;;;;;;;;17.20;99.90;;;;;;5056782;28;20275;-74
2022/06/21 02:52:39;;;;;;;;;;;17.20;99.90;;;;;;5056565;28;19995;-73
2022/06/21 02:55:24;;;;;;;;;;;17.10;99.90;;;;;;5056434;28;20367;-73
2022/06/21 02:58:00;;;;;;;;;;;17.10;99.90;;;;;;5056485;28;20004;-73
2022/06/21 03:00:27;;;;;;;;;;;17.10;99.90;;;;;;5056627;28;19916;-73
2022/06/21 03:02:54;;;;;;;;;;;17.10;99.90;;;;;;5056681;28;20357;-73
2022/06/21 03:05:22;;;;;;;;;;;17.00;99.90;;;;;;5056318;28;19913;-73
2022/06/21 03:07:55;;;;;;;;;;;17.10;99.90;;;;;;5056238;28;19955;-73
2022/06/21 03:10:27;;;;;;;;;;;17.10;99.90;;;;;;5056394;28;19916;-73
2022/06/21 03:13:00;;;;;;;;;;;17.20;99.90;;;;;;5056346;28;19908;-73
2022/06/21 03:15:27;;;;;;;;;;;17.40;99.90;;;;;;5056252;28;20032;-74
2022/06/21 03:17:58;;;;;;;;;;;17.30;99.90;;;;;;5055972;28;20381;-74
2022/06/21 03:20:25;;;;;;;;;;;17.20;99.90;;;;;;5056246;28;19916;-74
2022/06/21 03:22:54;;;;;;;;;;;17.30;99.90;;;;;;5056151;28;19999;-73
2022/06/21 03:25:22;;;;;;;;;;;17.30;99.90;;;;;;5056006;28;20367;-74
2022/06/21 03:27:49;;;;;;;;;;;17.40;99.90;;;;;;5055935;28;19909;-74
2022/06/21 03:30:17;;;;;;;;;;;17.40;99.90;;;;;;5055943;28;20402;-76
2022/06/21 03:32:44;;;;;;;;;;;17.50;99.90;;;;;;5055962;28;19909;-76
2022/06/21 03:35:12;;;;;;;;;;;17.60;99.90;;;;;;5055834;28;19924;-74
2022/06/21 03:37:39;;;;;;;;;;;17.60;99.90;;;;;;5055658;28;19909;-74
2022/06/21 03:42:52;;;;;;;;;;;17.50;99.90;;;;;;5056083;28;19920;-76
2022/06/21 03:45:33;;;;;;;;;;;17.40;99.90;;;;;;5055589;28;19979;-73
2022/06/21 03:48:20;;;;;;;;;;;17.30;99.90;;;;;;5055780;28;19916;-73
2022/06/21 03:50:55;;;;;;;;;;;17.30;99.90;;;;;;5055627;28;19909;-74
2022/06/21 03:53:42;;;;;;;;;;;17.20;99.90;;;;;;5055520;28;19921;-75
2022/06/21 03:56:28;;;;;;;;;;;17.10;99.90;;;;;;5055239;28;19924;-75
2022/06/21 03:58:55;;;;;;;;;;;17.10;99.90;;;;;;5055359;28;19909;-74
2022/06/21 04:01:31;;;;;;;;;;;16.90;99.90;;;;;;5055472;28;19916;-74
2022/06/21 04:04:15;;;;;;;;;;;16.90;99.90;;;;;;5055496;28;19912;-75
2022/06/21 04:06:46;;;;;;;;;;;16.80;99.90;;;;;;5055389;28;19909;-75
2022/06/21 04:09:32;;;;;;;;;;;16.80;99.90;;;;;;5055500;28;19916;-75
2022/06/21 04:12:06;;;;;;;;;;;16.90;99.90;;;;;;5054494;28;19909;-74
2022/06/21 04:14:53;;;;;;;;;;;16.90;99.90;;;;;;5055344;28;20363;-74
2022/06/21 04:17:33;;;;;;;;;;;16.90;99.90;;;;;;5055302;28;20310;-74
2022/06/21 04:20:09;;;;;;;;;;;16.80;99.90;;;;;;5055214;28;19962;-74
2022/06/21 04:22:36;;;;;;;;;;;16.70;99.90;;;;;;5055195;28;20375;-74
2022/06/21 04:25:11;;;;;;;;;;;17.00;99.90;;;;;;5054939;28;20409;-74
2022/06/21 04:27:47;;;;;;;;;;;17.00;99.90;;;;;;5054904;28;20314;-74
2022/06/21 04:30:31;;;;;;;;;;;17.00;99.90;;;;;;5054800;28;20274;-74
2022/06/21 04:33:18;;;;;;;;;;;17.00;99.90;;;;;;5054953;28;19984;-75
2022/06/21 04:35:49;;;;;;;;;;;16.80;99.90;;;;;;5054461;28;19923;-74
2022/06/21 04:38:27;;;;;;;;;;;16.90;99.90;;;;;;5054881;28;20347;-74
2022/06/21 04:41:00;;;;;;;;;;;16.90;99.90;;;;;;5054671;28;19912;-74
2022/06/21 04:43:26;;;;;;;;;;;16.80;99.90;;;;;;5054718;28;19963;-74
2022/06/21 04:45:56;;;;;;;;;;;16.90;99.90;;;;;;5054441;28;19909;-74
2022/06/21 04:48:32;;;;;;;;;;;16.90;99.90;;;;;;5054479;28;20370;-74
2022/06/21 04:51:02;;;;;;;;;;;16.90;99.90;;;;;;5054292;28;19909;-74
2022/06/21 04:53:47;;;;;;;;;;;17.10;99.90;;;;;;5054415;28;20007;-74
2022/06/21 04:56:27;;;;;;;;;;;17.10;99.90;;;;;;5054319;28;19917;-74
2022/06/21 04:58:54;;;;;;;;;;;17.20;99.90;;;;;;5054498;28;20348;-74
2022/06/21 05:01:32;;;;;;;;;;;17.20;99.90;;;;;;5054412;28;20447;-74
2022/06/21 05:04:01;;;;;;;;;;;17.10;99.90;;;;;;5054218;28;19951;-75
2022/06/21 05:06:28;;;;;;;;;;;17.00;99.90;;;;;;5054304;28;19963;-75
2022/06/21 05:08:55;;;;;;;;;;;16.90;99.90;;;;;;5054084;28;19947;-74
2022/06/21 05:11:23;;;;;;;;;;;17.00;99.90;;;;;;5053933;28;20337;-75
2022/06/21 05:13:51;;;;;;;;;;;17.00;99.90;;;;;;5053863;28;20321;-75
2022/06/21 05:16:18;;;;;;;;;;;17.00;99.90;;;;;;5053804;28;19963;-74
2022/06/21 05:18:50;;;;;;;;;;;17.10;99.90;;;;;;5053830;28;20011;-74
2022/06/21 05:21:23;;;;;;;;;;;17.20;99.90;;;;;;5053753;28;19913;-74
2022/06/21 05:23:50;;;;;;;;;;;17.20;99.90;;;;;;5053573;28;19909;-74
2022/06/21 05:26:20;;;;;;;;;;;17.10;99.90;;;;;;5053491;28;20017;-74
2022/06/21 05:28:53;;;;;;;;;;;17.00;99.90;;;;;;5053923;28;19915;-74
2022/06/21 05:31:27;;;;;;;;;;;16.90;99.90;;;;;;5053671;28;20275;-74
2022/06/21 05:34:14;;;;;;;;;;;16.80;99.90;;;;;;5053537;28;19963;-74
2022/06/21 05:36:47;;;;;;;;;;;16.80;99.90;;;;;;5052982;28;20279;-73
2022/06/21 05:39:22;;;;;;;;;;;16.70;99.90;;;;;;5053548;28;19908;-74
2022/06/21 05:41:51;;;;;;;;;;;16.60;99.90;;;;;;5053522;28;19913;-74
2022/06/21 05:44:34;;;;;;;;;;;16.60;99.90;;;;;;5053484;28;20287;-74
2022/06/21 05:47:18;;;;;;;;;;;16.50;99.90;;;;;;5053604;28;19916;-73
2022/06/21 05:49:45;;;;;;;;;;;16.50;99.90;;;;;;5053262;28;20501;-74
2022/06/21 05:52:38;;;;;;;;;;;16.60;99.90;;;;;;5053421;28;19913;-75
2022/06/21 05:55:08;;;;;;;;;;;16.70;99.90;;;;;;5052982;28;19917;-75
2022/06/21 05:57:42;;;;;;;;;;;16.60;99.90;;;;;;5053110;28;19972;-75
2022/06/21 06:00:23;;;;;;;;;;;16.60;99.90;;;;;;5053337;28;19909;-75
2022/06/21 06:02:52;;;;;;;;;;;16.70;99.90;;;;;;5052680;28;19909;-74
2022/06/21 06:05:25;;;;;;;;;;;16.70;99.90;;;;;;5053299;28;19928;-75
2022/06/21 06:07:54;;;;;;;;;;;16.80;99.90;;;;;;5053058;28;19932;-75
2022/06/21 06:10:22;;;;;;;;;;;16.80;99.90;;;;;;5053045;28;19909;-75
2022/06/21 06:12:51;;;;;;;;;;;16.80;99.90;;;;;;5053104;28;19962;-75
2022/06/21 06:15:21;;;;;;;;;;;16.70;99.90;;;;;;5053346;28;19921;-73
2022/06/21 06:17:54;;;;;;;;;;;16.70;99.90;;;;;;5052988;28;20382;-73
2022/06/21 06:20:29;;;;;;;;;;;16.60;99.90;;;;;;5053019;28;19909;-73
2022/06/21 06:23:01;;;;;;;;;;;16.60;99.90;;;;;;5053025;28;20293;-75
2022/06/21 06:25:32;;;;;;;;;;;16.50;99.90;;;;;;5051588;28;19909;-73
2022/06/21 06:28:02;;;;;;;;;;;16.50;99.90;;;;;;5052996;28;19956;-74
2022/06/21 06:30:35;;;;;;;;;;;16.40;99.90;;;;;;5053029;28;20287;-74
2022/06/21 06:33:11;;;;;;;;;;;16.40;99.90;;;;;;5052806;28;20248;-74
2022/06/21 06:35:38;;;;;;;;;;;16.40;99.90;;;;;;5052550;28;19917;-73
2022/06/21 06:38:05;;;;;;;;;;;16.30;99.90;;;;;;5052978;28;19932;-74
2022/06/21 06:40:35;;;;;;;;;;;16.30;99.90;;;;;;5052836;28;19909;-74
2022/06/21 06:43:07;;;;;;;;;;;16.30;99.90;;;;;;5052811;28;19915;-75
2022/06/21 06:45:37;;;;;;;;;;;16.20;99.90;;;;;;5052922;28;19909;-74
2022/06/21 06:48:10;;;;;;;;;;;16.20;99.90;;;;;;5052702;28;19932;-74
2022/06/21 06:50:46;;;;;;;;;;;16.20;99.90;;;;;;5052427;28;19909;-73
2022/06/21 06:53:22;;;;;;;;;;;16.20;99.90;;;;;;5050408;28;20398;-74
2022/06/21 06:55:51;;;;;;;;;;;16.30;99.90;;;;;;5050203;28;20455;-74
2022/06/21 06:58:18;;;;;;;;;;;16.40;99.90;;;;;;5050634;28;19983;-73
2022/06/21 07:00:51;;;;;;;;;;;16.70;99.90;;;;;;5050616;28;19921;-74
2022/06/21 07:03:37;;;;;;;;;;;17.00;99.90;;;;;;5050596;28;19913;-74
2022/06/21 07:06:04;;;;;;;;;;;17.00;99.90;;;;;;5050170;28;20248;-74
2022/06/21 07:08:49;;;;;;;;;;;16.80;99.90;;;;;;5050218;28;19920;-74
2022/06/21 07:11:48;;;;;;;;;;;16.70;99.90;;;;;;5050384;28;19912;-74
2022/06/21 07:14:18;;;;;;;;;;;16.50;99.90;;;;;;5050768;28;19916;-75
2022/06/21 07:16:45;;;;;;;;;;;16.30;99.90;;;;;;5054156;28;19909;-75
2022/06/21 07:19:12;;;;;;;;;;;16.00;99.90;;;;;;5053469;28;20027;-77
2022/06/21 07:21:39;;;;;;;;;;;15.70;99.90;;;;;;5053753;28;19981;-76
2022/06/21 07:24:15;;;;;;;;;;;15.40;99.90;;;;;;5054026;28;20007;-76
2022/06/21 07:26:48;;;;;;;;;;;15.20;99.90;;;;;;5054127;28;19909;-76
2022/06/21 07:29:20;;;;;;;;;;;15.00;99.90;;;;;;5053980;28;19976;-76
2022/06/21 07:31:52;;;;;;;;;;;14.90;99.90;;;;;;5053476;28;19920;-76
2022/06/21 07:34:45;;;;;;;;;;;14.80;99.90;;;;;;5053769;28;19913;-76
2022/06/21 07:37:15;;;;;;;;;;;14.70;99.90;;;;;;5053296;28;19909;-77
2022/06/21 07:39:47;;;;;;;;;;;14.70;99.90;;;;;;5053483;28;19916;-77
2022/06/21 07:42:28;;;;;;;;;;;14.60;99.90;;;;;;5053692;28;19970;-77
2022/06/21 07:45:04;;;;;;;;;;;14.70;99.90;;;;;;5053395;28;19916;-77
2022/06/21 07:47:36;;;;;;;;;;;14.60;99.90;;;;;;5068787;28;19913;-76
2022/06/21 07:50:11;;;;;;;;;;;14.50;99.90;;;;;;5053557;28;19940;-77
2022/06/21 07:52:43;;;;;;;;;;;14.40;99.90;;;;;;5053469;28;20353;-77
2022/06/21 07:55:22;;;;;;;;;;;14.40;99.90;;;;;;5053298;28;20371;-77
2022/06/21 07:57:54;;;;;;;;;;;14.30;99.90;;;;;;5053114;28;19916;-76
2022/06/21 08:00:22;;;;;;;;;;;14.20;99.90;;;;;;5052025;28;20398;-76
2022/06/21 08:08:44;;;;;;;;;;;14.00;99.90;;;;;;5053442;28;19915;-77
2022/06/21 08:11:33;;;;;;;;;;;14.00;99.90;;;;;;5052831;28;19935;-77
2022/06/21 08:14:00;;;;;;;;;;;14.00;99.90;;;;;;5053243;28;19918;-77
2022/06/21 08:16:33;;;;;;;;;;;14.00;99.90;;;;;;5053192;28;19917;-75
2022/06/21 08:19:12;;;;;;;;;;;14.10;99.90;;;;;;5052952;28;19956;-75
2022/06/21 08:21:46;;;;;;;;;;;14.00;99.90;;;;;;5052815;28;19909;-75
2022/06/21 08:24:29;;;;;;;;;;;14.10;99.90;;;;;;5052317;28;19909;-74
2022/06/21 08:27:04;;;;;;;;;;;14.10;99.90;;;;;;5052294;28;20007;-75
2022/06/21 08:29:39;;;;;;;;;;;14.10;99.90;;;;;;5052843;28;19959;-75
2022/06/21 08:32:10;;;;;;;;;;;14.10;99.90;;;;;;5052993;28;19916;-75
2022/06/21 08:34:42;;;;;;;;;;;14.20;99.90;;;;;;5052762;28;19990;-75
2022/06/21 08:37:09;;;;;;;;;;;14.20;99.90;;;;;;5052348;28;19955;-76
2022/06/21 08:39:42;;;;;;;;;;;14.20;99.90;;;;;;5052362;28;19916;-75
2022/06/21 08:42:30;;;;;;;;;;;14.30;99.90;;;;;;5052607;28;19913;-75
2022/06/21 08:48:11;;;;;;;;;;;14.30;99.90;;;;;;5052983;28;20421;-76
2022/06/21 08:50:52;;;;;;;;;;;14.40;99.90;;;;;;5052095;28;19948;-75
2022/06/21 08:53:27;;;;;;;;;;;14.40;99.90;;;;;;5051835;28;19920;-75
2022/06/21 08:56:12;;;;;;;;;;;14.50;99.90;;;;;;5051727;28;19924;-75
2022/06/21 08:58:41;;;;;;;;;;;14.50;99.90;;;;;;5013895;28;20004;-75
2022/06/21 09:01:30;;;;;;;;;;;14.50;99.90;;;;;;5012447;28;19921;-74
2022/06/21 09:04:28;;;;;;;;;;;14.40;99.90;;;;;;5012233;28;20395;-75
2022/06/21 09:07:12;;;;;;;;;;;14.40;99.90;;;;;;5002218;28;19910;-74
2022/06/21 09:09:57;;;;;;;;;;;14.30;99.90;;;;;;5013964;28;19960;-75
2022/06/21 09:12:30;;;;;;;;;;;14.30;99.90;;;;;;5014516;28;19932;-74
2022/06/21 09:14:57;;;;;;;;;;;14.30;99.90;;;;;;5014083;28;19976;-75
2022/06/21 09:17:27;;;;;;;;;;;14.30;99.90;;;;;;5014203;28;20327;-75
2022/06/21 09:20:03;;;;;;;;;;;14.20;99.90;;;;;;5014134;28;20000;-75
2022/06/21 09:22:32;;;;;;;;;;;14.20;99.90;;;;;;5013638;28;19910;-74
2022/06/21 09:25:05;;;;;;;;;;;14.10;99.90;;;;;;5013857;28;19910;-74
2022/06/21 09:27:33;;;;;;;;;;;14.10;99.90;;;;;;5013832;28;19963;-75
2022/06/21 09:30:03;;;;;;;;;;;14.00;99.90;;;;;;5013977;28;19910;-74
2022/06/21 09:32:45;;;;;;;;;;;14.00;99.90;;;;;;5013850;28;20280;-74
2022/06/21 09:35:15;;;;;;;;;;;13.90;99.90;;;;;;5013903;28;19925;-75
2022/06/21 09:37:45;;;;;;;;;;;13.90;99.90;;;;;;5012171;28;20395;-74
2022/06/21 09:40:38;;;;;;;;;;;13.90;99.90;;;;;;5013920;28;20328;-74
2022/06/21 09:43:09;;;;;;;;;;;13.80;99.90;;;;;;5012556;28;19909;-75
2022/06/21 09:45:42;;;;;;;;;;;13.80;99.90;;;;;;5013724;28;19913;-75
2022/06/21 09:48:34;;;;;;;;;;;13.70;99.90;;;;;;5013780;28;19956;-75
2022/06/21 09:51:20;;;;;;;;;;;13.60;99.90;;;;;;5012652;28;20000;-76
2022/06/21 09:54:04;;;;;;;;;;;13.70;99.90;;;;;;5012820;28;19925;-75
2022/06/21 09:56:40;;;;;;;;;;;13.60;99.90;;;;;;5013809;28;20368;-74
2022/06/21 09:59:16;;;;;;;;;;;13.70;99.90;;;;;;5013379;28;19916;-74
2022/06/21 10:01:49;;;;;;;;;;;13.70;99.90;;;;;;5013572;28;19910;-75
2022/06/21 10:04:37;;;;;;;;;;;13.60;99.90;;;;;;5013983;28;20005;-75
2022/06/21 10:07:19;;;;;;;;;;;13.60;99.90;;;;;;5013635;28;20275;-75
2022/06/21 10:09:49;;;;;;;;;;;13.60;99.90;;;;;;5013165;28;19910;-74
2022/06/21 10:12:39;;;;;;;;;;;13.60;99.90;;;;;;5013606;28;20360;-75
2022/06/21 10:15:46;;;;;;;;;;;13.60;99.90;;;;;;5013516;28;19971;-75
2022/06/21 10:18:22;;;;;;;;;;;13.50;99.90;;;;;;4991667;28;19978;-75
2022/06/21 10:20:54;;;;;;;;;;;13.50;99.90;;;;;;4991764;28;20006;-75
2022/06/21 10:23:42;;;;;;;;;;;13.50;99.90;;;;;;5004736;28;19917;-76
2022/06/21 10:26:26;;;;;;;;;;;13.50;99.90;;;;;;5013519;28;19910;-75
2022/06/21 10:29:11;;;;;;;;;;;13.50;99.90;;;;;;5042943;28;20284;-75
2022/06/21 10:31:50;;;;;;;;;;;13.50;99.90;;;;;;5011240;28;19913;-76
2022/06/21 10:34:23;;;;;;;;;;;13.40;99.90;;;;;;5010938;28;19909;-75
2022/06/21 10:36:56;;;;;;;;;;;13.40;99.90;;;;;;5011261;28;19909;-75
2022/06/21 10:39:52;;;;;;;;;;;13.30;99.90;;;;;;5011174;28;19996;-75
2022/06/21 10:42:47;;;;;;;;;;;13.30;99.90;;;;;;4991421;28;20309;-75
2022/06/21 10:45:33;;;;;;;;;;;13.30;99.90;;;;;;5011102;28;19916;-74
2022/06/21 10:48:18;;;;;;;;;;;13.20;99.90;;;;;;5010804;28;20253;-75
2022/06/21 10:50:55;;;;;;;;;;;13.30;99.90;;;;;;5015151;28;19917;-75
2022/06/21 10:53:40;;;;;;;;;;;13.40;99.90;;;;;;5014737;28;20010;-75
2022/06/21 10:59:12;;;;;;;;;;;13.50;99.90;;;;;;5014914;28;20460;-75
2022/06/21 11:01:46;;;;;;;;;;;13.50;99.90;;;;;;5014664;28;19964;-74
2022/06/21 11:04:25;;;;;;;;;;;13.50;99.90;;;;;;5014332;28;19913;-74
2022/06/21 11:07:02;;;;;;;;;;;13.50;99.90;;;;;;5014379;28;19921;-75
2022/06/21 11:09:38;;;;;;;;;;;13.50;99.90;;;;;;5014645;28;19909;-75
2022/06/21 11:15:22;;;;;;;;;;;13.20;99.90;;;;;;5014658;28;19975;-74
2022/06/21 11:17:59;;;;;;;;;;;13.20;99.90;;;;;;5012606;28;20052;-74
2022/06/21 11:20:41;;;;;;;;;;;13.10;99.90;;;;;;5014159;28;20379;-75
2022/06/21 11:23:08;;;;;;;;;;;13.00;99.90;;;;;;5014388;28;20091;-75
2022/06/21 11:25:40;;;;;;;;;;;12.90;99.90;;;;;;5014202;28;19921;-75
2022/06/21 11:28:16;;;;;;;;;;;13.00;99.90;;;;;;5014337;28;20272;-75
2022/06/21 11:31:01;;;;;;;;;;;12.90;99.90;;;;;;5014396;28;19910;-75
2022/06/21 11:33:30;;;;;;;;;;;13.00;99.90;;;;;;5013538;28;20276;-75
2022/06/21 11:36:00;;;;;;;;;;;13.00;99.90;;;;;;5014116;28;19972;-75
2022/06/21 11:38:32;;;;;;;;;;;13.00;99.90;;;;;;5014098;28;19948;-75
2022/06/21 11:41:09;;;;;;;;;;;13.00;99.90;;;;;;5014302;28;19913;-75
2022/06/21 11:43:47;;;;;;;;;;;13.00;99.90;;;;;;5014066;28;20359;-75
2022/06/21 11:46:17;;;;;;;;;;;13.00;99.90;;;;;;5013679;28;19960;-76
2022/06/21 11:48:53;;;;;;;;;;;13.00;99.90;;;;;;5013589;28;19913;-76
2022/06/21 11:51:30;;;;;;;;;;;13.00;99.90;;;;;;5015375;28;19916;-75
2022/06/21 11:54:00;;;;;;;;;;;13.20;99.90;;;;;;5016136;28;20344;-76
2022/06/21 11:56:36;;;;;;;;;;;13.10;99.90;;;;;;5015873;28;20223;-76
2022/06/21 11:59:06;;;;;;;;;;;13.00;99.90;;;;;;5015944;28;20364;-77
2022/06/21 12:01:33;;;;;;;;;;;12.90;99.90;;;;;;5014605;28;19952;-76
2022/06/21 12:04:13;;;;;;;;;;;12.80;99.90;;;;;;5047225;28;19932;-76
2022/06/21 12:06:40;;;;;;;;;;;12.90;99.90;;;;;;5013538;28;19949;-76
2022/06/21 12:09:25;;;;;;;;;;;12.90;99.90;;;;;;5013544;28;20372;-76
2022/06/21 12:11:54;;;;;;;;;;;12.80;99.90;;;;;;5013448;28;19956;-76
2022/06/21 12:14:32;;;;;;;;;;;12.70;99.90;;;;;;5013496;28;20380;-76
2022/06/21 12:17:20;;;;;;;;;;;12.70;99.90;;;;;;5013121;28;20279;-76
2022/06/21 12:19:50;;;;;;;;;;;12.70;99.90;;;;;;5013040;28;19916;-76
2022/06/21 12:22:27;;;;;;;;;;;12.70;99.90;;;;;;5013213;28;19914;-76
2022/06/21 12:24:53;;;;;;;;;;;12.60;99.90;;;;;;5013330;28;19910;-76
2022/06/21 12:27:20;;;;;;;;;;;12.50;99.90;;;;;;5013316;28;19910;-76
2022/06/21 12:29:47;;;;;;;;;;;12.40;99.90;;;;;;5013005;28;20319;-76
2022/06/21 12:32:23;;;;;;;;;;;12.40;99.90;;;;;;5012260;28;19948;-76
2022/06/21 12:35:01;;;;;;;;;;;12.50;99.90;;;;;;5013263;28;19917;-74
2022/06/21 12:37:28;;;;;;;;;;;12.50;99.90;;;;;;5013033;28;19929;-76
2022/06/21 12:39:58;;;;;;;;;;;12.50;99.90;;;;;;5012816;28;19968;-76
2022/06/21 12:42:28;;;;;;;;;;;12.40;99.90;;;;;;5012910;28;19910;-76
2022/06/21 12:45:00;;;;;;;;;;;12.40;99.90;;;;;;5012517;28;19917;-75
2022/06/21 12:47:36;;;;;;;;;;;12.40;99.90;;;;;;5012302;28;20095;-76
2022/06/21 12:50:21;;;;;;;;;;;12.40;99.90;;;;;;5012931;28;19917;-76
2022/06/21 12:52:47;;;;;;;;;;;12.40;99.90;;;;;;5012442;28;19925;-74
2022/06/21 12:55:40;;;;;;;;;;;12.40;99.90;;;;;;5012917;28;19917;-74
2022/06/21 12:58:31;;;;;;;;;;;12.40;99.90;;;;;;5012328;28;19920;-75
2022/06/21 13:01:01;;;;;;;;;;;12.30;99.90;;;;;;5012642;28;20269;-75
2022/06/21 13:03:40;;;;;;;;;;;12.40;99.90;;;;;;5012021;28;19917;-75
2022/06/21 13:06:17;;;;;;;;;;;12.30;99.90;;;;;;5012559;28;19916;-75
2022/06/21 13:09:02;;;;;;;;;;;12.30;99.90;;;;;;5012333;28;19910;-75
2022/06/21 13:11:35;;;;;;;;;;;12.40;99.90;;;;;;5011939;28;19971;-75
2022/06/21 13:14:07;;;;;;;;;;;12.40;99.90;;;;;;5012361;28;19985;-74
2022/06/21 13:16:53;;;;;;;;;;;12.30;99.90;;;;;;5011755;28;19972;-74
2022/06/21 13:19:27;;;;;;;;;;;12.30;99.90;;;;;;5012376;28;19914;-74
2022/06/21 13:22:12;;;;;;;;;;;12.20;99.90;;;;;;5011990;28;19979;-74
2022/06/21 13:24:57;;;;;;;;;;;12.20;99.90;;;;;;5011938;28;19909;-74
2022/06/21 13:27:31;;;;;;;;;;;12.20;99.90;;;;;;5012391;28;19921;-75
2022/06/21 13:29:58;;;;;;;;;;;12.20;99.90;;;;;;5012374;28;20576;-75
2022/06/21 13:32:27;;;;;;;;;;;12.20;99.90;;;;;;5012093;28;19917;-75
2022/06/21 13:34:57;;;;;;;;;;;12.20;99.90;;;;;;5012072;28;19971;-75
2022/06/21 13:37:44;;;;;;;;;;;12.30;99.90;;;;;;5011696;28;20437;-74
2022/06/21 13:40:20;;;;;;;;;;;12.20;99.90;;;;;;5011799;28;20323;-75
2022/06/21 13:42:53;;;;;;;;;;;12.20;99.90;;;;;;5011928;28;19913;-74
2022/06/21 13:45:31;;;;;;;;;;;12.20;99.90;;;;;;5012123;28;19921;-74
2022/06/21 13:48:01;;;;;;;;;;;12.10;99.90;;;;;;5011938;28;19913;-74
2022/06/21 13:50:47;;;;;;;;;;;12.20;99.90;;;;;;5011592;28;20610;-73
2022/06/21 13:53:22;;;;;;;;;;;12.30;99.90;;;;;;5011564;28;19999;-73
2022/06/21 13:56:15;;;;;;;;;;;12.30;99.90;;;;;;5043165;28;19953;-74
2022/06/21 13:58:44;;;;;;;;;;;12.20;99.90;;;;;;5011845;28;19914;-74
2022/06/21 14:01:23;;;;;;;;;;;12.20;99.90;;;;;;5011642;28;19913;-76
2022/06/21 14:04:01;;;;;;;;;;;12.20;99.90;;;;;;5011070;28;20344;-77
2022/06/21 14:06:37;;;;;;;;;;;12.10;99.90;;;;;;5011604;28;19913;-76
2022/06/21 14:09:24;;;;;;;;;;;12.10;99.90;;;;;;5011629;28;19976;-76
2022/06/21 14:11:52;;;;;;;;;;;12.00;99.90;;;;;;5011135;28;19936;-76
2022/06/21 14:14:37;;;;;;;;;;;12.00;99.90;;;;;;5011596;28;19964;-76
2022/06/21 14:17:13;;;;;;;;;;;11.90;99.90;;;;;;5011229;28;19921;-76
2022/06/21 14:19:45;;;;;;;;;;;11.90;99.90;;;;;;5043133;28;19949;-76
2022/06/21 14:22:16;;;;;;;;;;;11.90;99.90;;;;;;5011259;28;19916;-76
2022/06/21 14:24:49;;;;;;;;;;;12.00;99.90;;;;;;5032732;28;20268;-76
2022/06/21 14:27:34;;;;;;;;;;;12.00;99.90;;;;;;5049712;28;19956;-76
2022/06/21 14:30:01;;;;;;;;;;;12.00;99.90;;;;;;5017626;28;19916;-76
2022/06/21 14:32:27;;;;;;;;;;;12.00;99.90;;;;;;5017790;28;19920;-76
2022/06/21 14:35:03;;;;;;;;;;;12.10;99.90;;;;;;5017781;28;19928;-75
2022/06/21 14:37:39;;;;;;;;;;;12.10;99.90;;;;;;5017523;28;19995;-76
2022/06/21 14:40:06;;;;;;;;;;;12.10;99.90;;;;;;5017898;28;19996;-75
2022/06/21 14:42:34;;;;;;;;;;;12.00;99.90;;;;;;5017494;28;19914;-75
2022/06/21 14:45:12;;;;;;;;;;;12.10;99.90;;;;;;5017796;28;20347;-74
2022/06/21 14:47:47;;;;;;;;;;;12.00;99.90;;;;;;5017581;28;20388;-75
2022/06/21 14:50:24;;;;;;;;;;;12.00;99.90;;;;;;5017858;28;20549;-74
2022/06/21 14:53:09;;;;;;;;;;;12.10;99.90;;;;;;5017537;28;19925;-74
2022/06/21 14:55:51;;;;;;;;;;;12.10;99.90;;;;;;5017218;28;19921;-74
2022/06/21 14:58:33;;;;;;;;;;;12.10;99.90;;;;;;5017828;28;19918;-75
2022/06/21 15:01:07;;;;;;;;;;;12.10;99.90;;;;;;5017750;28;19913;-74
2022/06/21 15:03:37;;;;;;;;;;;12.10;99.90;;;;;;5017601;28;19909;-74
2022/06/21 15:06:24;;;;;;;;;;;11.90;99.90;;;;;;5017548;28;19937;-74
2022/06/21 15:09:09;;;;;;;;;;;11.90;99.90;;;;;;5017359;28;19910;-74
2022/06/21 15:14:25;;;;;;;;;;;11.90;99.90;;;;;;5017856;28;19951;-74
2022/06/21 15:16:52;;;;;;;;;;;12.00;99.90;;;;;;5017681;28;19913;-74